Terminal Aerodrome Forecast
Issued by NWS St Louis, MO

Home | Current Version | Previous Version | Graphics & Text | Print | Product List | Glossary On
Versions: 1 2 3 4 5 6 7 8 9 10 11 12 13 14 15 16 17 18 19 20 21 22 23 24 25 26 27 28 29 30 31 32
000
FTUS43 KLSX 180500
TAFSTL
TAF
KSTL 180520Z 1806/1912 VRB04KT 6SM BR SCT020 BKN035
      TEMPO 1806/1809 4SM BR SCT004
     FM180900 VRB03KT 2SM BR SCT004
     FM181500 VRB03KT P6SM SCT030 SCT250
     FM190000 18005KT P6SM SCT030=

USA.gov is the U.S. government's official web portal to all federal, state and local government web resources and services.